createdAt,value
2022-12-19T01:54:15.744Z,50.00
2022-12-19T01:56:51.738Z,45.33
2022-12-19T01:59:28.030Z,49.30
2022-12-19T02:02:06.451Z,41.80
2022-12-19T02:04:40.641Z,46.25
2022-12-19T03:51:22.377Z,46.80
2022-12-19T03:56:41.642Z,49.20
2022-12-19T03:59:18.908Z,44.55
2022-12-19T04:01:53.590Z,49.30
2022-12-19T04:04:28.187Z,52.47
2022-12-19T04:07:02.735Z,49.13
2022-12-19T04:09:36.935Z,49.40
2022-12-19T04:12:13.552Z,52.17
2022-12-19T04:14:45.763Z,52.90
2022-12-19T04:17:26.452Z,58.22
2022-12-19T04:20:05.349Z,52.53
2022-12-19T04:22:41.846Z,52.28
2022-12-19T04:25:18.360Z,53.30
2022-12-19T04:27:53.607Z,56.53
2022-12-19T04:30:26.663Z,58.08
2022-12-19T04:32:59.525Z,59.22
2022-12-19T04:35:32.777Z,51.70
2022-12-19T04:40:41.509Z,46.60
2022-12-19T04:43:13.668Z,53.53
2022-12-19T04:45:46.132Z,45.70
2022-12-19T04:48:18.527Z,54.05
2022-12-19T04:50:51.704Z,49.25
2022-12-19T04:53:24.771Z,62.92
2022-12-19T04:56:01.213Z,62.10
2022-12-19T04:58:33.592Z,56.70
2022-12-19T05:01:07.647Z,58.90
2022-12-19T05:03:39.785Z,53.03
2022-12-19T05:06:14.070Z,51.60
2022-12-19T05:08:46.410Z,52.20
2022-12-19T05:11:20.009Z,52.20
2022-12-19T05:13:52.003Z,50.97
2022-12-19T05:16:23.790Z,49.03
2022-12-19T05:18:57.153Z,48.85
2022-12-19T05:24:01.878Z,54.73
2022-12-19T05:26:33.648Z,51.53
2022-12-19T05:29:05.409Z,51.58
2022-12-19T05:31:37.304Z,53.65
2022-12-19T05:34:09.121Z,53.25
2022-12-19T05:36:42.242Z,58.70
2022-12-19T05:39:14.156Z,51.85
2022-12-19T05:41:49.006Z,57.75
2022-12-19T05:44:21.295Z,53.05
2022-12-19T05:46:53.097Z,51.20
2022-12-19T05:49:24.911Z,59.95
2022-12-19T05:51:58.293Z,56.25
2022-12-19T05:54:31.107Z,53.00
2022-12-19T05:57:02.982Z,58.25
2022-12-19T05:59:34.761Z,58.88
2022-12-19T06:02:06.641Z,57.58
2022-12-19T06:04:38.452Z,55.70
2022-12-19T06:07:13.454Z,53.33
2022-12-19T06:09:47.066Z,54.75
2022-12-19T06:12:18.860Z,56.08
2022-12-19T06:14:50.929Z,55.92
2022-12-19T06:17:22.884Z,54.60
2022-12-19T06:19:54.622Z,56.40
2022-12-19T06:22:27.719Z,53.70
2022-12-19T06:24:59.547Z,58.83
2022-12-19T06:27:31.352Z,61.78
2022-12-19T06:30:03.597Z,62.75
2022-12-19T06:32:38.097Z,64.13
2022-12-19T06:35:10.219Z,72.22
2022-12-19T06:37:43.334Z,81.72
2022-12-19T06:40:35.160Z,62.38
2022-12-19T06:43:06.949Z,58.08
2022-12-19T06:45:38.730Z,61.28
2022-12-19T06:48:10.521Z,57.78
2022-12-19T06:50:42.251Z,55.03
2022-12-19T06:53:15.386Z,58.55
2022-12-19T06:58:24.061Z,50.13
2022-12-19T07:00:56.794Z,49.33
2022-12-19T07:03:31.246Z,57.38
2022-12-19T07:06:03.404Z,48.97
2022-12-19T07:08:36.603Z,53.28
2022-12-19T08:30:02.650Z,56.85
2022-12-19T08:32:34.473Z,53.00
2022-12-19T08:35:07.442Z,53.72
2022-12-19T08:37:40.383Z,54.35
2022-12-19T09:18:48.442Z,52.05
2022-12-19T09:21:23.056Z,52.35
2022-12-19T09:24:00.536Z,51.75
2022-12-19T09:26:39.260Z,54.20
2022-12-19T09:29:19.849Z,54.28
2022-12-19T09:31:56.173Z,48.08
2022-12-19T09:34:37.058Z,49.65
2022-12-19T09:37:16.665Z,46.75
2022-12-19T09:39:49.695Z,49.65
2022-12-19T09:42:44.732Z,52.35
2022-12-19T09:45:37.338Z,53.40
2022-12-19T09:48:23.514Z,55.30
2022-12-19T09:51:10.512Z,50.60
2022-12-19T10:01:50.780Z,56.55
2022-12-19T10:04:26.718Z,52.92
2022-12-19T10:07:21.261Z,54.70
2022-12-19T10:12:40.720Z,50.17
2022-12-19T10:13:13.202Z,51.05
2022-12-19T10:15:58.995Z,57.53
2022-12-19T10:18:48.445Z,53.40
2022-12-19T10:21:59.489Z,51.83
2022-12-19T10:24:40.367Z,58.37
2022-12-19T10:58:58.623Z,47.80
2022-12-19T11:01:34.806Z,45.50
2022-12-19T11:04:29.505Z,48.42
2022-12-19T11:07:19.049Z,44.47
2022-12-19T11:10:06.479Z,50.10
2022-12-19T11:17:46.797Z,51.63
2022-12-19T11:19:28.386Z,54.13
2022-12-19T11:29:15.212Z,47.47
2022-12-19T11:29:31.733Z,49.38
2022-12-19T11:30:38.169Z,52.22
2022-12-19T11:30:46.257Z,47.63
2022-12-19T11:33:24.010Z,45.80
2022-12-19T11:35:58.965Z,44.90
2022-12-19T11:49:05.239Z,44.45
2022-12-19T11:51:43.420Z,45.00
2022-12-19T11:56:52.818Z,48.05
2022-12-19T11:59:30.638Z,43.50
2022-12-19T12:02:41.973Z,41.83
2022-12-19T12:05:32.894Z,40.17
2022-12-19T12:10:40.102Z,38.72
2022-12-19T12:18:11.883Z,37.75
2022-12-19T12:23:27.172Z,37.35
2022-12-19T12:31:10.766Z,41.13
2022-12-19T12:31:23.723Z,40.00
2022-12-19T12:31:44.727Z,43.83
2022-12-19T12:31:48.869Z,44.75
2022-12-19T12:32:03.000Z,46.95
2022-12-19T12:35:28.855Z,45.22
2022-12-19T12:39:04.883Z,48.47
2022-12-19T12:42:03.730Z,47.30
2022-12-19T12:44:45.207Z,53.50
2022-12-19T12:47:20.525Z,46.15
2022-12-19T12:49:56.367Z,49.60
2022-12-19T12:52:33.769Z,51.08
2022-12-19T12:55:15.506Z,50.72
2022-12-19T12:57:47.456Z,45.20
2022-12-19T13:00:26.187Z,50.53
2022-12-19T13:03:05.111Z,53.78
2022-12-19T13:05:53.013Z,48.83
2022-12-19T13:08:34.396Z,57.92
2022-12-19T13:11:11.677Z,55.38
2022-12-19T13:13:55.032Z,45.22
2022-12-19T13:16:53.015Z,45.50
2022-12-19T13:22:34.212Z,43.80
2022-12-19T13:25:44.843Z,48.92
2022-12-19T13:28:38.979Z,44.30
2022-12-19T13:31:22.932Z,40.45
2022-12-19T13:34:18.263Z,47.53
2022-12-19T13:39:51.497Z,42.40
2022-12-19T13:40:20.605Z,40.97
2022-12-19T13:43:20.665Z,44.75
2022-12-19T13:45:55.510Z,42.35
2022-12-19T13:48:31.668Z,42.45
2022-12-19T17:06:29.290Z,44.57
2022-12-19T17:09:01.041Z,45.63
2022-12-19T17:11:33.259Z,42.67
2022-12-19T17:29:25.121Z,40.47
2022-12-19T17:31:58.591Z,48.25
2022-12-19T17:34:32.188Z,45.92
2022-12-19T17:37:05.405Z,50.13
2022-12-19T17:39:38.250Z,44.00
2022-12-19T17:42:16.417Z,43.63
2022-12-19T17:44:48.355Z,47.88
2022-12-19T17:47:21.503Z,47.58
2022-12-19T17:49:53.287Z,38.65
2022-12-19T19:49:37.978Z,42.45
2022-12-19T20:37:46.959Z,44.75
2022-12-19T20:40:18.927Z,42.53
2022-12-19T20:42:50.688Z,42.30
2022-12-19T20:45:22.586Z,37.40
2022-12-19T20:47:55.287Z,46.53
2022-12-19T20:50:28.725Z,34.05
2022-12-19T20:53:00.648Z,39.38
2022-12-19T20:55:32.412Z,31.23
2022-12-19T20:58:04.332Z,30.67
2022-12-19T21:00:37.392Z,35.25
2022-12-19T21:06:03.380Z,35.72
2022-12-19T21:08:35.489Z,39.70
2022-12-19T21:11:08.678Z,36.75
2022-12-19T21:13:41.477Z,36.83
2022-12-19T21:16:16.499Z,45.00
2022-12-19T21:18:49.038Z,41.63
2022-12-19T21:21:24.281Z,40.92
2022-12-19T21:23:56.129Z,39.83
2022-12-19T21:26:27.929Z,32.55
2022-12-19T21:28:59.993Z,34.33
2022-12-19T21:31:32.027Z,40.78
2022-12-19T21:34:03.909Z,40.47
2022-12-19T21:36:38.494Z,38.33
2022-12-19T21:39:10.966Z,34.97
2022-12-19T21:41:42.731Z,41.70
2022-12-19T21:44:14.482Z,39.97
2022-12-19T21:46:46.335Z,38.15
2022-12-19T21:49:18.176Z,38.05
2022-12-19T21:51:51.336Z,35.72
2022-12-19T21:54:23.104Z,37.45
2022-12-19T21:56:54.890Z,42.53
2022-12-19T21:59:28.413Z,38.78
2022-12-19T22:02:00.358Z,37.35
2022-12-19T22:04:32.321Z,38.03
2022-12-19T22:07:05.830Z,44.67
2022-12-19T22:09:37.611Z,39.03
2022-12-19T22:12:11.917Z,43.13
2022-12-19T22:14:43.761Z,40.33
2022-12-19T22:17:15.535Z,40.67
2022-12-19T22:19:47.342Z,39.30
2022-12-19T22:22:20.433Z,41.08
2022-12-19T22:24:52.192Z,38.60
2022-12-19T23:43:31.126Z,46.03
